Track Божко Екатерина

Time Latitude Longitude Accuracy (66% radius in meters) Altitude (meters) Speed (km/hour) Bearing (degrees) Battery (%) GPS flag
10:07:46 44.566933 38.175673 16 71.915875936331 0.24108077585697 4.8046374320984 85 1 delete
10:07:40 44.566918 38.175687 4 71.128066531726 0.061737988144159 65.624313354492 85 1 delete
10:07:34 44.566921 38.175720 6 70.982321908001 0.80377012491226 35.478229522705 85 1 delete
10:07:22 44.566950 38.175735 6 70.595644988774 0.90714037418365 62.818172454834 85 1 delete
10:07:10 44.566935 38.175754 8 71.657376285547 0.24532026052475 267.06234741211 85 1 delete
10:07:01 44.566902 38.175737 6 72.118642828833 0.33071386814117 279.40393066406 85 1 delete
10:06:49 44.566929 38.175764 6 71.226833341829 0.37163469195366 53.86661529541 85 1 delete
10:06:46 44.566926 38.175751 8 71.113833115909 0.27429550886154 126.32155609131 85 1 delete
10:06:37 44.566957 38.175706 6 70.656576379303 0.41808378696442 48.151916503906 85 1 delete
10:06:25 44.566960 38.175688 4 70.61745706603 0.20951275527477 273.22546386719 85 1 delete
10:06:22 44.566959 38.175697 8 70.512885365504 0.015455508604646 225.09265136719 85 1 delete
10:06:16 44.566945 38.175704 8 70.048775429811 0.17351233959198 34.694625854492 85 1 delete
10:06:04 44.566897 38.175721 6 69.93289014021 0.45915135741234 194.59284973145 85 1 delete
10:05:58 44.566919 38.175741 6 69.480402878484 0.065036214888096 230.33502197266 85 1 delete
10:05:52 44.566942 38.175757 8 69.105977491494 0.54769271612167 183.40849304199 85 1 delete
10:05:40 44.566971 38.175763 6 69.014162926327 0.34295183420181 248.44468688965 85 1 delete
10:05:28 44.566983 38.175742 6 68.185124966855 0.27583155035973 26.767280578613 85 1 delete
10:05:16 44.567001 38.175753 8 68.081513938961 1.2741720676422 47.904682159424 85 1 delete
10:05:07 44.566967 38.175727 6 68.537343471088 0.043021883815527 343.98571777344 85 1 delete
10:05:04 44.566950 38.175738 4 68.560331033706 0.42583203315735 322.0007019043 85 1 delete
10:04:46 44.566946 38.175786 8 68.749560724313 0.2886381149292 164.70988464355 85 1 delete
10:04:34 44.566975 38.175745 6 69.344050792027 0.45003658533096 357.22326660156 85 1 delete
10:04:25 44.566968 38.175769 6 69.329081088308 0.065869890153408 132.9141998291 85 1 delete
10:04:13 44.566966 38.175757 6 70.218716496876 0.14066894352436 337.57171630859 85 1 delete
10:04:01 44.566952 38.175753 12 70.280035981642 0.32600378990173 46.029014587402 85 1 delete
10:03:49 44.566947 38.175725 8 70.910028339088 0.41108533740044 329.22235107422 85 1 delete
10:03:37 44.566969 38.175732 8 70.939853909115 0.69416761398315 318.06240844727 87 1 delete
10:03:28 44.566941 38.175748 6 71.374214016492 0.50341463088989 51.02766418457 87 1 delete
10:03:16 44.566981 38.175737 6 70.804640866187 1.7066609859467 57.88680267334 87 1 delete
10:03:10 44.566946 38.175626 6 70.608654266849 2.0285694599152 50.226367950439 87 1 delete
10:03:07 44.566896 38.175564 6 70.636133802367 2.086327791214 40.672164916992 87 1 delete
10:03:04 44.566850 38.175523 6 70.645490015555 2.0976264476776 27.058172225952 87 1 delete
10:03:01 44.566790 38.175490 6 70.789670031152 2.0979418754578 5.4254198074341 87 1 delete
10:02:58 44.566738 38.175466 4 70.987667310461 2.0993165969849 18.335851669312 87 1 delete
10:02:55 44.566686 38.175445 6 71.133286694666 2.0345318317413 31.153945922852 87 1 delete
10:02:52 44.566638 38.175423 6 71.45138505487 1.9750893115997 23.026479721069 87 1 delete
10:02:49 44.566563 38.175373 6 71.662385066553 1.8997659683228 36.051414489746 87 1 delete
10:02:46 44.566507 38.175333 4 71.931786763652 1.9231120347977 23.649120330811 87 1 delete
10:02:43 44.566479 38.175278 6 72.038113087556 1.9837642908096 81.617065429688 87 1 delete
10:02:40 44.566474 38.175182 8 72.147320682061 2.0118899345398 87.076904296875 87 1 delete
10:02:37 44.566488 38.175075 8 72.309566864442 1.9074989557266 160.38084411621 87 1 delete
10:02:34 44.566497 38.175028 4 72.432994658568 1.980398774147 122.67852783203 87 1 delete
10:02:31 44.566524 38.174955 4 72.806514589619 2.0007874965668 111.04492950439 87 1 delete
10:02:28 44.566548 38.174870 4 73.150525936599 2.0042481422424 116.70930480957 87 1 delete
10:02:25 44.566573 38.174803 6 73.54752859406 2.0426485538483 122.48120880127 87 1 delete
10:02:22 44.566607 38.174724 4 73.908158238997 2.0998299121857 135.123046875 87 1 delete
10:02:19 44.566641 38.174657 4 74.148054270375 2.1311595439911 137.77705383301 87 1 delete
10:02:16 44.566696 38.174581 6 74.446306874203 2.1109972000122 152.0276184082 87 1 delete
10:02:13 44.566750 38.174526 4 74.678480677592 2.0800032615662 149.34396362305 87 1 delete
10:02:10 44.566814 38.174470 6 74.943082222626 2.0784783363342 132.34429931641 87 1 delete